Burress, Nebraska
Current Conditions -  °F | °C
As of 8:15 AM on Friday 19 Dec 2014 (Local Time) from KJYR Reporting Station
Haze Haze  
Wind Chill: 25°   Ceiling: 1000
Heat Index: 30°   Visibility: 5mi
Dew Point: 28°   Wind: 5mph
Humidity: 93%   Direction: 190°S
Pressure: 30.17"   Gusts: NA
Location:  40.6549°N, 97.5966°W
Report Text: KJYR 191415Z AUTO 19004KT 5SM BR OVC010 M01/M02 A3017 RMK AO2
Loading
Personal Weather Stations






























Interactive Weather Map New forecast layout! Learn more

10-Day Weather Forecast

Advertisements
Track Severe Weather on mobile